Flight Track Log - Related Links

Times and Time Zones

All times are in EST time to prevent confusion due to time zone crossing. See the QXE803 flight status page for this flight to view local times or setup timezone preferences in your user account.

Time Position Orientation Groundspeed Altitude Reporting Facility
EST Latitude Longitude Course Direction KTS MPH feet Rate Location/Type
Mon 01:41:53 PM 48.7301 -122.5467 13° North  Level FlightAware Approximate
Mon 01:42:48 PM 48.7667 -122.5333 213° Southwest 130 150 1,800  Level Vancouver Center
Mon 01:43:48 PM 48.7167 -122.5833 180° South 200 230 4,000 2,800 Climbing Vancouver Center
Mon 01:44:48 PM 48.6500 -122.5833 180° South 220 253 7,400 2,500 Climbing Vancouver Center
Mon 01:45:48 PM 48.6000 -122.5833 215° Southwest 230 265 9,000 1,109 Climbing Vancouver Center
Mon 01:46:20 PM 48.5761 -122.6089 326° Northwest 253 291 9,100 171 Climbing Seattle Center
Mon 01:46:23 PM 48.5764 -122.6092 194° South 243 280 9,100 -100 Level Seattle Center
Mon 01:47:20 PM 48.5069 -122.6356 360° North 256 295 9,000 -98 Descending Seattle Center
Mon 01:47:24 PM 48.5081 -122.6356 192° South 255 293 9,000  Level Seattle Center
Mon 01:48:21 PM 48.4372 -122.6589 14° North 243 280 9,000 98 Level Seattle Center
Mon 01:48:25 PM 48.4439 -122.6564 192° South 244 281 9,100  Climbing Seattle Center
Mon 01:49:21 PM 48.3714 -122.6803 12° North 243 280 9,000 -98 Descending Seattle Center
Mon 01:49:26 PM 48.3775 -122.6783 193° South 245 282 9,000  Level Seattle Center
Mon 01:50:22 PM 48.3100 -122.7022 197° South 241 277 9,000  Level Seattle Center
Mon 01:50:27 PM 48.3008 -122.7064 192° South 241 277 9,000 90 Level Seattle Center
Mon 01:51:29 PM 48.2372 -122.7272 185° South 237 273 9,100 52 Climbing Seattle Center
Mon 01:52:23 PM 48.1758 -122.7356 183° South 240 276 9,100  Level Seattle Center
Mon 01:52:30 PM 48.1719 -122.7358 182° South 236 272 9,100  Level Seattle Center
Mon 01:52:44 PM 48.1503 -122.7372 186° South 239 275 9,100 -98 Level Seattle Center
Mon 01:53:31 PM 48.1069 -122.7439 187° South 237 273 9,000 -58 Descending Seattle Center
Mon 01:54:28 PM 48.0375 -122.7561 17° North 244 281 9,000  Level Seattle Center
Mon 01:54:32 PM 48.0400 -122.7550 185° South 242 278 9,000  Level Seattle Center
Mon 01:55:22 PM 47.9750 -122.7639 180° South 247 284 9,000  Level Seattle Center
Mon 01:55:33 PM 47.9725 -122.7639 185° South 246 283 9,000  Level Seattle Center
Mon 01:56:23 PM 47.9042 -122.7731 185° South 242 278 9,000  Level Seattle Center
Mon 01:56:34 PM 47.8928 -122.7744 186° South 244 281 9,000  Level Seattle Center
Mon 01:57:12 PM 47.8528 -122.7811 184° South 239 275 9,000  Level Seattle Center
Mon 01:57:35 PM 47.8286 -122.7839 186° South 239 275 9,000  Level Seattle Center
Mon 01:58:19 PM 47.7800 -122.7914 183° South 236 272 9,000  Level Seattle Center
Mon 01:58:37 PM 47.7617 -122.7931 185° South 235 270 9,000  Level Seattle Center
Mon 01:59:20 PM 47.7175 -122.7989 185° South 231 266 9,000  Level Seattle Center
Mon 01:59:38 PM 47.6986 -122.8011 186° South 231 266 9,000  Level Seattle Center
Mon 02:00:14 PM 47.6597 -122.8075 185° South 228 262 9,000  Level Seattle Center
Mon 02:00:39 PM 47.6308 -122.8114 187° South 228 262 9,000  Level Seattle Center
Mon 02:01:15 PM 47.5914 -122.8181 180° South 229 264 9,000  Level Seattle Center
Mon 02:01:41 PM 47.5783 -122.8181 186° South 229 264 9,000  Level Seattle Center
Mon 02:02:16 PM 47.5289 -122.8258 184° South 230 265 9,000  Level Seattle Center
Mon 02:02:42 PM 47.5036 -122.8286 186° South 229 264 9,000  Level Seattle Center
Mon 02:03:17 PM 47.4647 -122.8344 184° South 228 262 9,000  Level Seattle Center
Mon 02:03:43 PM 47.4411 -122.8369 187° South 229 264 9,000  Level Seattle Center
Mon 02:04:11 PM 47.4069 -122.8428 183° South 232 267 9,000  Level Seattle Center
Mon 02:04:44 PM 47.3775 -122.8453 188° South 231 266 9,000  Level Seattle Center
Mon 02:05:12 PM 47.3406 -122.8525 182° South 235 270 9,000  Level Seattle Center
Mon 02:05:45 PM 47.3133 -122.8536 185° South 234 269 9,000  Level Seattle Center
Mon 02:06:13 PM 47.2733 -122.8592 185° South 236 272 9,000  Level Seattle Center
Mon 02:06:46 PM 47.2486 -122.8625 188° South 235 270 9,000  Level Seattle Center
Mon 02:07:14 PM 47.2097 -122.8706 182° South 237 273 9,000  Level Seattle Center
Mon 02:07:47 PM 47.1842 -122.8717 185° South 236 272 9,000  Level Seattle Center
Mon 02:08:09 PM 47.1511 -122.8758 186° South 235 270 9,000  Level Seattle Center
Mon 02:08:48 PM 47.1072 -122.8822 185° South 235 270 9,000  Level Seattle Center
Mon 02:09:21 PM 47.0697 -122.8869 185° South 235 270 9,000  Level Seattle Center
Mon 02:09:49 PM 47.0414 -122.8908 187° South 235 270 9,000  Level Seattle Center
Mon 02:10:16 PM 47.0100 -122.8964 185° South 238 274 9,000  Level Seattle Center
Mon 02:10:51 PM 46.9772 -122.9008 171° South 238 274 9,000 -63 Level Seattle Center
Mon 02:11:52 PM 46.9122 -122.8850 170° South 244 281 8,900 -49 Descending Seattle Center
Mon 02:12:53 PM 46.8461 -122.8675 170° South 245 282 8,900  Level Seattle Center
Mon 02:13:54 PM 46.7814 -122.8506 170° South 242 278 8,900  Level Seattle Center
Mon 02:14:55 PM 46.7161 -122.8344 171° South 241 277 8,900 49 Level Seattle Center
Mon 02:15:56 PM 46.6425 -122.8169 169° South 235 270 9,000  Climbing Seattle Center
Mon 02:16:57 PM 46.5747 -122.7975 171° South 240 276 8,900 -49 Descending Seattle Center
Mon 02:17:58 PM 46.5083 -122.7819 172° South 243 280 8,900 49 Level Seattle Center
Mon 02:18:59 PM 46.4394 -122.7672 170° South 240 276 9,000 49 Climbing Seattle Center
Mon 02:20:00 PM 46.3739 -122.7503 170° South 239 275 9,000  Level Seattle Center
Mon 02:21:01 PM 46.3064 -122.7331 170° South 243 280 9,000  Level Seattle Center
Mon 02:22:02 PM 46.2453 -122.7169 172° South 246 283 9,000 -146 Level Seattle Center
Mon 02:22:23 PM 46.2103 -122.7097 167° South 246 283 8,800 -677 Descending Seattle Center
Mon 02:23:04 PM 46.1719 -122.6972 174° South 245 282 8,300 -873 Descending Seattle Center
Mon 02:23:18 PM 46.1517 -122.6942 168° South 241 277 8,000 -984 Descending Seattle Center
Mon 02:24:05 PM 46.1069 -122.6808 174° South 239 275 7,300 -1,000 Descending Seattle Center
Mon 02:24:18 PM 46.0883 -122.6781 172° South 230 265 7,000 -295 Descending Seattle Center
Mon 02:25:06 PM 46.0494 -122.6697 204° Southwest 212 244 7,000  Level Seattle Center
Mon 02:25:19 PM 46.0336 -122.6797 197° South 205 236 7,000 -197 Level Seattle Center
Mon 02:26:07 PM 45.9992 -122.6947 202° Southwest 191 220 6,800 -600 Descending Seattle Center
Mon 02:26:19 PM 45.9783 -122.7069 198° South 197 227 6,400 -787 Descending Seattle Center
Mon 02:27:08 PM 45.9475 -122.7217 192° South 196 226 6,000 -436 Descending Seattle Center
Mon 02:27:14 PM 45.9325 -122.7264 197° South 201 231 6,000 -896 Level Seattle Center
Mon 02:28:15 PM 45.8728 -122.7525 198° South 210 242 5,000 -879 Descending Seattle Center
Mon 02:29:10 PM 45.8361 -122.7692 195° South 208 239 4,300 -984 Descending Seattle Center
Mon 02:29:16 PM 45.8189 -122.7758 196° South 202 232 4,000 -1,161 Descending Seattle Center
Mon 02:30:12 PM 45.7714 -122.7953 185° South 203 234 3,100 -1,000 Descending Seattle Center
Mon 02:30:16 PM 45.7642 -122.7961 198° South 202 232 3,000 -492 Descending Seattle Center
Mon 02:31:13 PM 45.7169 -122.8181 188° South 205 236 2,600 -393 Descending Seattle Center
Mon 02:31:17 PM 45.7103 -122.8194 171° South 206 237 2,600 -98 Level Seattle Center
Mon 02:32:14 PM 45.6722 -122.8108 140° Southeast 195 224 2,500 -90 Descending Seattle Center
Mon 02:32:24 PM 45.6642 -122.8011 118° Southeast 175 201 2,500 -393 Level Seattle Center
Mon 02:33:15 PM 45.6461 -122.7519 145° Southeast 190 219 2,100 -444 Descending Seattle Center
Mon 02:33:18 PM 45.6428 -122.7486 118° Southeast 177 204 2,100 -828 Level Seattle Center
Mon 02:34:13 PM 45.6242 -122.6983 116° Southeast 157 181 1,300 -828 Descending Seattle Center
Mon 02:34:16 PM 45.6233 -122.6958 118° Southeast 180 207 1,300 -590 Level Seattle Center
Mon 02:35:14 PM 45.6106 -122.6608 113° Southeast 109 125 700 -484 Descending Seattle Center
Mon 02:35:18 PM 45.6081 -122.6522 113° Southeast 154 177 800 1,500 Climbing Seattle Center

Login

Don't have an account? Register now (free) for customized features, flight alerts, and more!